createdAt,value
2022-12-03T00:00:26.628Z,92.95
2022-12-03T00:02:56.668Z,105.00
2022-12-03T00:05:24.667Z,97.08
2022-12-03T00:07:52.610Z,103.60
2022-12-03T00:10:20.298Z,102.55
2022-12-03T00:12:49.952Z,99.67
2022-12-03T00:15:17.941Z,100.72
2022-12-03T00:17:46.607Z,101.12
2022-12-03T00:20:22.199Z,103.47
2022-12-03T00:22:50.612Z,106.12
2022-12-03T00:25:18.318Z,107.63
2022-12-03T00:27:46.178Z,115.70
2022-12-03T00:30:14.325Z,114.82
2022-12-03T00:32:42.416Z,118.80
2022-12-03T00:35:10.220Z,131.75
2022-12-03T00:37:37.951Z,126.10
2022-12-03T00:40:07.057Z,127.40
2022-12-03T00:42:34.574Z,114.10
2022-12-03T00:45:02.494Z,119.90
2022-12-03T00:47:30.407Z,115.77
2022-12-03T00:49:57.897Z,114.22
2022-12-03T00:52:25.783Z,110.48
2022-12-03T00:54:53.865Z,115.00
2022-12-03T00:57:21.722Z,106.22
2022-12-03T00:59:49.351Z,115.47
2022-12-03T01:02:16.922Z,117.62
2022-12-03T01:04:44.839Z,101.67
2022-12-03T01:07:12.530Z,111.25
2022-12-03T01:09:40.202Z,109.00
2022-12-03T01:12:07.893Z,109.60
2022-12-03T01:14:36.068Z,108.20
2022-12-03T01:17:03.797Z,104.15
2022-12-03T01:19:33.534Z,100.05
2022-12-03T01:22:02.168Z,95.40
2022-12-03T01:24:30.068Z,94.17
2022-12-03T01:26:58.275Z,90.90
2022-12-03T01:29:26.310Z,91.20
2022-12-03T01:32:12.280Z,93.00
2022-12-03T01:37:07.390Z,78.22
2022-12-03T01:39:35.211Z,85.90
2022-12-03T01:42:05.690Z,85.53
2022-12-03T01:44:36.581Z,81.80
2022-12-03T01:47:07.169Z,83.95
2022-12-03T01:49:58.330Z,83.52
2022-12-03T01:52:30.538Z,83.20
2022-12-03T01:55:01.279Z,85.35
2022-12-03T01:57:46.154Z,84.58
2022-12-03T02:00:18.674Z,80.47
2022-12-03T02:02:50.433Z,88.70
2022-12-03T02:05:26.029Z,93.07
2022-12-03T02:07:54.790Z,95.97
2022-12-03T02:10:30.345Z,88.00
2022-12-03T02:13:08.293Z,91.32
2022-12-03T02:15:39.995Z,83.78
2022-12-03T02:18:08.869Z,86.17
2022-12-03T02:20:59.843Z,87.92
2022-12-03T02:23:48.229Z,84.75
2022-12-03T02:26:15.904Z,67.67
2022-12-03T02:28:43.610Z,61.28
2022-12-03T02:31:11.527Z,60.83
2022-12-03T02:33:39.387Z,60.03
2022-12-03T02:36:08.054Z,57.43
2022-12-03T02:38:36.260Z,57.88
2022-12-03T02:41:08.251Z,58.42
2022-12-03T02:43:36.690Z,54.67
2022-12-03T02:46:07.005Z,58.73
2022-12-03T02:48:37.498Z,64.70
2022-12-03T02:51:09.168Z,78.47
2022-12-03T02:53:42.111Z,64.47
2022-12-03T02:56:14.186Z,58.90
2022-12-03T02:58:44.873Z,53.05
2022-12-03T03:01:14.634Z,55.30
2022-12-03T03:03:44.747Z,54.08
2022-12-03T03:06:13.315Z,57.23
2022-12-03T03:08:42.766Z,54.03
2022-12-03T03:11:11.148Z,54.42
2022-12-03T03:13:39.533Z,49.98
2022-12-03T03:16:08.930Z,53.58
2022-12-03T03:18:37.286Z,67.97
2022-12-03T03:21:06.198Z,67.50
2022-12-03T03:23:34.022Z,65.08
2022-12-03T03:26:06.199Z,63.08
2022-12-03T03:28:41.907Z,61.15
2022-12-03T03:31:13.429Z,54.93
2022-12-03T03:33:44.545Z,55.00
2022-12-03T03:36:14.651Z,54.73
2022-12-03T03:38:42.763Z,62.30
2022-12-03T03:41:11.831Z,61.58
2022-12-03T03:43:42.216Z,60.33
2022-12-03T03:46:11.799Z,63.17
2022-12-03T03:48:41.598Z,73.42
2022-12-03T03:51:10.988Z,62.45
2022-12-03T03:53:43.254Z,62.65
2022-12-03T03:56:11.724Z,59.63
2022-12-03T03:58:39.521Z,65.87
2022-12-03T04:01:08.934Z,65.72
2022-12-03T04:03:36.991Z,68.28
2022-12-03T04:06:06.081Z,67.45
2022-12-03T04:08:33.842Z,66.50
2022-12-03T04:11:20.297Z,69.40
2022-12-03T04:13:48.017Z,67.42
2022-12-03T04:16:15.667Z,61.92
2022-12-03T04:18:43.654Z,58.98
2022-12-03T04:21:34.564Z,54.73
2022-12-03T04:24:03.880Z,57.93
2022-12-03T04:26:50.356Z,62.17
2022-12-03T04:29:19.957Z,55.78
2022-12-03T04:32:06.441Z,66.55
2022-12-03T04:34:53.155Z,59.30
2022-12-03T04:37:21.159Z,58.23
2022-12-03T04:39:48.494Z,60.85
2022-12-03T04:42:16.131Z,62.80
2022-12-03T04:44:43.928Z,65.65
2022-12-03T04:47:15.648Z,66.62
2022-12-03T04:49:48.480Z,72.20
2022-12-03T04:52:19.907Z,66.07
2022-12-03T04:54:48.171Z,62.05
2022-12-03T04:57:16.564Z,63.10
2022-12-03T04:59:44.189Z,62.20
2022-12-03T05:02:11.938Z,59.18
2022-12-03T05:04:40.063Z,62.13
2022-12-03T05:07:08.981Z,63.40
2022-12-03T05:09:36.832Z,59.70
2022-12-03T05:12:05.057Z,58.17
2022-12-03T05:14:32.959Z,60.92
2022-12-03T05:17:00.814Z,58.15
2022-12-03T05:19:47.167Z,59.03
2022-12-03T05:22:14.780Z,63.45
2022-12-03T05:24:42.916Z,63.05
2022-12-03T05:27:10.509Z,64.40
2022-12-03T05:29:38.166Z,55.67
2022-12-03T05:32:06.217Z,59.83
2022-12-03T05:34:34.208Z,65.08
2022-12-03T05:37:01.900Z,58.17
2022-12-03T05:39:29.517Z,56.90
2022-12-03T05:42:15.858Z,66.50
2022-12-03T05:44:43.646Z,63.02
2022-12-03T05:47:11.140Z,62.38
2022-12-03T05:49:39.278Z,61.55
2022-12-03T05:52:06.878Z,56.65
2022-12-03T05:54:34.713Z,70.12
2022-12-03T05:57:02.557Z,59.20
2022-12-03T05:59:30.072Z,54.53
2022-12-03T06:01:57.699Z,52.08
2022-12-03T06:04:25.440Z,82.02
2022-12-03T06:06:53.093Z,87.78
2022-12-03T06:09:21.177Z,63.33
2022-12-03T06:11:50.938Z,103.58
2022-12-03T06:14:18.823Z,76.37
2022-12-03T06:16:46.568Z,62.13
2022-12-03T06:19:14.172Z,62.15
2022-12-03T06:21:42.033Z,67.17
2022-12-03T06:24:10.902Z,65.12
2022-12-03T06:26:38.656Z,71.53
2022-12-03T06:29:06.436Z,88.78
2022-12-03T06:31:34.876Z,120.35
2022-12-03T06:34:02.552Z,120.47
2022-12-03T06:36:30.460Z,102.70
2022-12-03T06:38:57.996Z,77.62
2022-12-03T06:41:25.904Z,87.42
2022-12-03T06:43:53.599Z,85.17
2022-12-03T06:46:21.455Z,84.92
2022-12-03T06:48:48.994Z,90.35
2022-12-03T06:51:16.628Z,95.67
2022-12-03T06:53:44.352Z,100.82
2022-12-03T06:56:12.207Z,106.30
2022-12-03T06:58:39.966Z,108.92
2022-12-03T07:01:07.724Z,98.75
2022-12-03T07:03:39.074Z,100.67
2022-12-03T07:06:07.018Z,96.57
2022-12-03T07:08:34.508Z,97.22
2022-12-03T07:11:02.378Z,97.37
2022-12-03T07:13:31.477Z,98.15
2022-12-03T07:16:01.690Z,108.00
2022-12-03T07:18:33.238Z,109.75
2022-12-03T07:21:01.150Z,103.80
2022-12-03T07:23:29.054Z,110.30
2022-12-03T07:25:57.029Z,99.52
2022-12-03T07:28:25.286Z,95.00
2022-12-03T07:30:53.419Z,89.35
2022-12-03T07:33:21.362Z,91.80
2022-12-03T07:35:49.331Z,92.02
2022-12-03T07:38:17.297Z,93.95
2022-12-03T07:40:46.510Z,74.77
2022-12-03T07:43:16.408Z,76.85
2022-12-03T07:45:44.395Z,76.47
2022-12-03T07:48:25.893Z,76.60
2022-12-03T07:50:56.357Z,75.03
2022-12-03T07:53:35.172Z,74.07
2022-12-03T07:56:06.424Z,74.05
2022-12-03T07:58:36.713Z,75.52
2022-12-03T08:01:05.190Z,73.42
2022-12-03T08:03:33.355Z,88.20
2022-12-03T08:06:08.672Z,86.32
2022-12-03T08:08:37.823Z,90.03
2022-12-03T08:11:06.237Z,85.90
2022-12-03T08:13:34.603Z,88.22
2022-12-03T08:16:08.115Z,83.65
2022-12-03T08:18:36.914Z,80.10
2022-12-03T08:21:08.587Z,84.80
2022-12-03T08:23:36.750Z,71.82
2022-12-03T08:26:19.190Z,81.00
2022-12-03T08:28:56.860Z,77.65
2022-12-03T08:31:33.560Z,80.28
2022-12-03T08:34:31.941Z,77.17
2022-12-03T08:37:17.864Z,89.45
2022-12-03T08:39:49.756Z,90.93
2022-12-03T08:42:41.545Z,86.28
2022-12-03T08:45:39.691Z,91.22
2022-12-03T08:48:34.166Z,97.67
2022-12-03T08:51:10.307Z,90.38
2022-12-03T08:53:46.324Z,87.35
2022-12-03T08:56:28.935Z,86.28
2022-12-03T08:59:14.174Z,85.55
2022-12-03T09:01:45.668Z,93.12
2022-12-03T09:04:30.384Z,96.45
2022-12-03T09:06:59.218Z,80.83
2022-12-03T09:09:27.580Z,84.40
2022-12-03T09:11:56.565Z,76.90
2022-12-03T09:14:28.541Z,78.78
2022-12-03T09:16:56.916Z,80.75
2022-12-03T09:19:29.759Z,85.32
2022-12-03T09:21:57.818Z,77.62
2022-12-03T09:24:25.813Z,69.12
2022-12-03T09:26:53.847Z,82.15
2022-12-03T09:29:21.752Z,72.90
2022-12-03T09:31:50.129Z,66.40
2022-12-03T09:34:29.062Z,69.92
2022-12-03T09:37:06.178Z,72.53
2022-12-03T09:39:38.561Z,68.87
2022-12-03T09:42:42.635Z,63.05
2022-12-03T09:45:49.393Z,63.35
2022-12-03T09:48:23.926Z,51.42
2022-12-03T09:50:55.830Z,59.25
2022-12-03T09:53:27.417Z,65.30
2022-12-03T09:56:00.284Z,60.55
2022-12-03T09:58:33.222Z,66.92
2022-12-03T10:00:59.312Z,67.37
2022-12-03T10:03:30.279Z,59.60
2022-12-03T10:05:58.373Z,59.58
2022-12-03T10:08:32.185Z,60.03
2022-12-03T10:10:58.787Z,57.00
2022-12-03T10:13:30.253Z,66.05
2022-12-03T10:16:00.810Z,69.72
2022-12-03T10:18:38.298Z,67.50
2022-12-03T10:21:04.280Z,71.07
2022-12-03T10:23:32.048Z,73.33
2022-12-03T10:26:05.560Z,70.80
2022-12-03T10:28:37.243Z,67.42
2022-12-03T10:31:09.415Z,70.80
2022-12-03T10:33:44.710Z,73.47
2022-12-03T10:36:23.988Z,65.03
2022-12-03T10:39:14.716Z,74.95
2022-12-03T10:41:44.475Z,57.95
2022-12-03T10:44:28.430Z,55.20
2022-12-03T10:47:11.963Z,56.23
2022-12-03T10:49:42.091Z,57.58
2022-12-03T10:52:25.829Z,79.55
2022-12-03T10:54:53.304Z,67.25
2022-12-03T10:57:22.339Z,59.15
2022-12-03T10:59:49.909Z,54.58
2022-12-03T11:02:25.209Z,66.45
2022-12-03T11:04:54.252Z,79.20
2022-12-03T11:07:23.915Z,95.72
2022-12-03T11:09:58.273Z,127.90
2022-12-03T11:12:30.978Z,53.90
2022-12-03T11:15:05.128Z,46.02
2022-12-03T11:17:51.984Z,44.80
2022-12-03T11:20:34.453Z,53.98
2022-12-03T11:23:17.939Z,47.25
2022-12-03T11:26:03.349Z,49.58
2022-12-03T11:28:35.637Z,44.80
2022-12-03T11:34:28.847Z,43.58
2022-12-03T11:37:17.524Z,50.03
2022-12-03T11:39:55.428Z,44.05
2022-12-03T11:48:48.181Z,38.28
2022-12-03T11:51:18.387Z,38.80
2022-12-03T11:53:46.061Z,30.50
2022-12-03T11:56:23.844Z,39.48
2022-12-03T11:59:03.728Z,32.25
2022-12-03T12:01:44.027Z,33.38
2022-12-03T12:04:31.206Z,29.45
2022-12-03T12:07:01.422Z,32.33
2022-12-03T12:09:54.409Z,29.37
2022-12-03T12:12:51.046Z,30.27
2022-12-03T12:15:42.740Z,28.52
2022-12-03T12:18:45.364Z,31.23
2022-12-03T12:21:41.882Z,35.75
2022-12-03T12:24:43.055Z,30.50
2022-12-03T12:27:14.496Z,35.33
2022-12-03T12:29:45.934Z,42.25
2022-12-03T12:32:41.294Z,37.40
2022-12-03T12:35:25.736Z,28.23
2022-12-03T12:38:00.398Z,32.33
2022-12-03T12:40:33.044Z,36.23
2022-12-03T12:43:24.381Z,37.30
2022-12-03T12:45:56.201Z,35.15
2022-12-03T12:48:27.728Z,36.42
2022-12-03T12:51:09.812Z,31.82
2022-12-03T12:53:42.463Z,36.48
2022-12-03T12:56:30.082Z,38.95
2022-12-03T12:59:03.258Z,36.58
2022-12-03T13:01:32.715Z,31.40
2022-12-03T13:04:34.378Z,29.12
2022-12-03T13:07:06.408Z,27.62
2022-12-03T13:09:34.560Z,38.05
2022-12-03T13:12:06.950Z,42.75
2022-12-03T13:14:37.093Z,50.88
2022-12-03T13:17:22.211Z,54.10
2022-12-03T13:22:53.788Z,40.03
2022-12-03T13:28:42.635Z,55.30
2022-12-03T13:31:43.870Z,43.92
2022-12-03T13:34:19.196Z,55.08
2022-12-03T13:36:57.591Z,54.00
2022-12-03T13:39:34.451Z,57.30
2022-12-03T13:42:38.558Z,62.30
2022-12-03T13:45:18.276Z,55.08
2022-12-03T13:47:49.958Z,65.00
2022-12-03T13:50:37.833Z,57.40
2022-12-03T13:53:45.452Z,71.62
2022-12-03T13:56:31.999Z,77.60
2022-12-03T13:59:00.850Z,101.55
2022-12-03T14:01:29.231Z,93.75
2022-12-03T14:03:57.174Z,102.92
2022-12-03T14:06:25.225Z,107.05
2022-12-03T14:08:53.225Z,115.05
2022-12-03T14:11:39.412Z,121.40
2022-12-03T14:14:07.290Z,97.70
2022-12-03T14:16:35.130Z,113.40
2022-12-03T14:19:03.459Z,165.07
2022-12-03T14:21:32.073Z,165.90
2022-12-03T14:23:59.819Z,159.57
2022-12-03T14:26:27.790Z,130.60
2022-12-03T14:28:55.678Z,101.85
2022-12-03T14:31:25.034Z,104.05
2022-12-03T14:33:52.969Z,109.32
2022-12-03T14:36:22.004Z,182.72
2022-12-03T14:38:50.038Z,197.37
2022-12-03T14:41:36.484Z,187.05
2022-12-03T14:44:04.580Z,127.47
2022-12-03T14:46:33.872Z,129.85
2022-12-03T14:49:01.798Z,131.70
2022-12-03T14:51:29.749Z,153.02
2022-12-03T14:53:58.784Z,147.32
2022-12-03T14:56:26.826Z,138.03
2022-12-03T14:58:54.951Z,128.80
2022-12-03T15:01:22.997Z,125.05
2022-12-03T15:03:50.871Z,128.12
2022-12-03T15:06:18.470Z,121.97
2022-12-03T15:08:47.114Z,116.70
2022-12-03T15:11:15.595Z,128.90
2022-12-03T15:13:45.114Z,125.07
2022-12-03T15:16:13.781Z,111.28
2022-12-03T15:18:41.740Z,116.57
2022-12-03T15:21:10.357Z,215.45
2022-12-03T15:23:38.370Z,136.10
2022-12-03T15:26:06.175Z,146.35
2022-12-03T15:28:33.992Z,194.13
2022-12-03T15:31:02.035Z,195.03
2022-12-03T15:33:29.723Z,197.70
2022-12-03T15:36:02.151Z,166.82
2022-12-03T15:38:29.963Z,151.68
2022-12-03T15:40:58.371Z,153.05
2022-12-03T15:43:26.518Z,156.82
2022-12-03T15:45:55.114Z,154.97
2022-12-03T15:48:23.983Z,151.05
2022-12-03T15:50:55.467Z,143.93
2022-12-03T15:53:23.955Z,141.43
2022-12-03T15:55:56.141Z,139.82
2022-12-03T15:58:24.847Z,133.12
2022-12-03T16:00:52.859Z,120.60
2022-12-03T16:03:26.932Z,119.25
2022-12-03T16:05:58.693Z,123.28
2022-12-03T16:08:27.601Z,109.45
2022-12-03T16:10:59.121Z,109.42
2022-12-03T16:13:31.945Z,146.72
2022-12-03T16:16:00.492Z,123.87
2022-12-03T16:18:32.530Z,101.50
2022-12-03T16:21:04.139Z,91.82
2022-12-03T16:23:31.929Z,82.00
2022-12-03T16:26:00.137Z,86.50
2022-12-03T16:28:28.482Z,91.53
2022-12-03T16:30:56.653Z,95.87
2022-12-03T16:33:31.462Z,101.80
2022-12-03T16:36:01.363Z,95.85
2022-12-03T16:38:30.612Z,93.05
2022-12-03T16:40:58.665Z,82.82
2022-12-03T16:43:27.684Z,77.58
2022-12-03T16:45:55.514Z,72.85
2022-12-03T16:48:25.455Z,73.28
2022-12-03T16:50:55.507Z,65.05
2022-12-03T16:53:26.625Z,64.75
2022-12-03T16:55:54.229Z,68.65
2022-12-03T16:58:22.274Z,69.70
2022-12-03T17:00:52.556Z,78.62
2022-12-03T17:03:22.214Z,83.42
2022-12-03T17:05:50.370Z,97.05
2022-12-03T17:08:19.161Z,160.63
2022-12-03T17:10:47.094Z,136.97
2022-12-03T17:13:15.086Z,113.83
2022-12-03T17:15:42.894Z,94.85
2022-12-03T17:18:10.727Z,125.53
2022-12-03T17:20:39.065Z,179.65
2022-12-03T17:23:06.760Z,117.57
2022-12-03T17:25:34.876Z,102.15
2022-12-03T17:28:03.502Z,86.78
2022-12-03T17:30:31.203Z,79.90
2022-12-03T17:32:58.776Z,72.30
2022-12-03T17:35:27.886Z,80.12
2022-12-03T17:37:56.203Z,77.20
2022-12-03T17:40:23.925Z,80.50
2022-12-03T17:42:51.846Z,96.37
2022-12-03T17:45:19.553Z,89.40
2022-12-03T17:47:47.303Z,87.62
2022-12-03T17:50:14.871Z,101.58
2022-12-03T17:52:42.782Z,94.75
2022-12-03T17:55:15.984Z,95.83
2022-12-03T17:57:40.198Z,101.65
2022-12-03T18:00:13.437Z,102.38
2022-12-03T18:02:44.069Z,103.70
2022-12-03T18:05:12.887Z,101.12
2022-12-03T18:07:40.746Z,95.57
2022-12-03T18:10:08.909Z,97.30
2022-12-03T18:12:37.057Z,109.78
2022-12-03T18:15:07.393Z,104.75
2022-12-03T18:17:35.441Z,105.83
2022-12-03T18:20:04.382Z,103.72
2022-12-03T18:22:32.005Z,111.28
2022-12-03T18:25:00.394Z,123.33
2022-12-03T18:27:29.157Z,116.12
2022-12-03T18:29:57.499Z,126.22
2022-12-03T18:32:29.197Z,155.40
2022-12-03T18:34:55.485Z,134.18
2022-12-03T18:37:29.279Z,151.47
2022-12-03T18:39:58.145Z,160.25
2022-12-03T18:42:26.930Z,161.60
2022-12-03T18:44:56.067Z,157.88
2022-12-03T18:47:29.166Z,155.80
2022-12-03T18:49:57.764Z,163.90
2022-12-03T18:52:25.831Z,179.07
2022-12-03T18:54:54.762Z,188.22
2022-12-03T18:57:22.536Z,194.55
2022-12-03T18:59:50.228Z,213.43
2022-12-03T19:04:52.675Z,221.15
2022-12-03T19:07:20.735Z,201.98
2022-12-03T19:09:48.351Z,246.50
2022-12-03T19:12:16.254Z,247.30
2022-12-03T19:14:43.815Z,186.28
2022-12-03T19:17:11.526Z,205.87
2022-12-03T19:19:39.683Z,162.32
2022-12-03T19:22:07.401Z,202.10
2022-12-03T19:24:35.476Z,151.72
2022-12-03T19:27:04.471Z,179.18
2022-12-03T19:29:32.314Z,154.50
2022-12-03T19:32:00.375Z,186.20
2022-12-03T19:34:29.904Z,163.60
2022-12-03T19:36:57.575Z,116.82
2022-12-03T19:39:25.309Z,125.27
2022-12-03T19:41:53.263Z,119.45
2022-12-03T19:44:22.028Z,134.85
2022-12-03T19:46:52.288Z,136.52
2022-12-03T19:49:20.885Z,130.03
2022-12-03T19:51:49.017Z,125.33
2022-12-03T19:54:17.763Z,136.72
2022-12-03T19:56:45.904Z,135.32
2022-12-03T19:59:14.301Z,136.00
2022-12-03T20:01:45.448Z,199.57
2022-12-03T20:04:15.180Z,203.65
2022-12-03T20:06:44.694Z,206.25
2022-12-03T20:09:16.368Z,199.85
2022-12-03T20:11:45.305Z,185.55
2022-12-03T20:14:17.693Z,209.22
2022-12-03T20:16:46.848Z,196.63
2022-12-03T20:19:17.592Z,198.10
2022-12-03T20:21:45.557Z,226.37
2022-12-03T20:24:17.505Z,249.77
2022-12-03T20:26:45.320Z,214.35
2022-12-03T20:29:13.258Z,177.15
2022-12-03T20:31:41.391Z,195.47
2022-12-03T20:34:10.514Z,196.28
2022-12-03T20:36:39.435Z,203.50
2022-12-03T20:39:08.230Z,215.05
2022-12-03T20:41:36.689Z,244.62
2022-12-03T20:44:07.583Z,246.50
2022-12-03T20:46:35.761Z,218.35
2022-12-03T20:49:05.317Z,200.70
2022-12-03T20:51:38.343Z,188.57
2022-12-03T20:54:06.500Z,212.90
2022-12-03T20:56:39.089Z,325.90
2022-12-03T20:59:10.728Z,195.80
2022-12-03T21:01:39.705Z,176.02
2022-12-03T21:04:09.206Z,138.12
2022-12-03T21:06:37.413Z,148.82
2022-12-03T21:09:07.187Z,146.95
2022-12-03T21:11:41.425Z,139.68
2022-12-03T21:14:11.934Z,138.15
2022-12-03T21:19:20.041Z,168.93
2022-12-03T21:21:48.923Z,149.62
2022-12-03T21:24:17.398Z,159.93
2022-12-03T21:26:46.237Z,164.25
2022-12-03T21:29:15.357Z,128.25
2022-12-03T21:31:43.626Z,128.50
2022-12-03T21:34:13.867Z,121.25
2022-12-03T21:36:42.475Z,115.45
2022-12-03T21:39:12.752Z,111.95
2022-12-03T21:41:40.815Z,86.75
2022-12-03T21:44:13.965Z,88.60
2022-12-03T21:47:11.455Z,87.37
2022-12-03T21:49:14.079Z,103.25
2022-12-03T21:51:42.176Z,126.82
2022-12-03T21:54:10.379Z,131.03
2022-12-03T21:56:39.334Z,137.28
2022-12-03T21:59:07.662Z,124.72
2022-12-03T22:01:41.653Z,120.00
2022-12-03T22:04:08.887Z,135.52
2022-12-03T22:06:38.718Z,123.25
2022-12-03T22:09:06.573Z,119.15
2022-12-03T22:11:36.354Z,144.90
2022-12-03T22:14:06.769Z,132.52
2022-12-03T22:16:35.597Z,136.85
2022-12-03T22:19:04.059Z,125.02
2022-12-03T22:21:35.200Z,154.50
2022-12-03T22:24:03.737Z,132.67
2022-12-03T22:26:35.324Z,114.00
2022-12-03T22:29:04.173Z,131.40
2022-12-03T22:31:32.866Z,106.25
2022-12-03T22:34:01.474Z,124.33
2022-12-03T22:36:29.725Z,111.05
2022-12-03T22:38:57.686Z,126.72
2022-12-03T22:41:29.694Z,136.52
2022-12-03T22:43:57.828Z,147.05
2022-12-03T22:46:25.794Z,160.35
2022-12-03T22:48:53.369Z,139.00
2022-12-03T22:51:25.850Z,145.60
2022-12-03T22:53:58.816Z,137.05
2022-12-03T22:56:30.266Z,144.28
2022-12-03T22:59:03.912Z,116.93
2022-12-03T23:01:34.963Z,113.17
2022-12-03T23:04:03.320Z,98.62
2022-12-03T23:06:36.163Z,94.90
2022-12-03T23:09:06.772Z,105.92
2022-12-03T23:11:35.395Z,93.40
2022-12-03T23:14:04.225Z,95.45
2022-12-03T23:16:33.795Z,98.20
2022-12-03T23:19:02.670Z,89.28
2022-12-03T23:21:34.636Z,92.75
2022-12-03T23:24:06.224Z,81.25
2022-12-03T23:26:36.783Z,77.20
2022-12-03T23:29:07.925Z,72.65
2022-12-03T23:31:36.905Z,70.75
2022-12-03T23:34:06.805Z,72.40
2022-12-03T23:36:34.932Z,68.80
2022-12-03T23:39:03.781Z,67.87
2022-12-03T23:41:31.816Z,69.32
2022-12-03T23:43:59.466Z,64.75
2022-12-03T23:46:27.901Z,63.70
2022-12-03T23:48:58.547Z,65.80
2022-12-03T23:51:27.159Z,61.75
2022-12-03T23:53:57.160Z,59.27
2022-12-03T23:56:29.045Z,64.22
2022-12-03T23:58:57.824Z,68.40
